createdAt,value
2018-02-22T00:01:48.365Z,27.05
2018-02-22T00:04:14.799Z,28.50
2018-02-22T00:06:42.547Z,27.33
2018-02-22T00:09:08.965Z,27.65
2018-02-22T00:11:35.417Z,27.25
2018-02-22T00:14:01.845Z,28.17
2018-02-22T00:16:28.380Z,27.73
2018-02-22T00:18:54.792Z,26.80
2018-02-22T00:21:21.190Z,27.67
2018-02-22T00:23:47.650Z,28.02
2018-02-22T00:26:14.144Z,27.20
2018-02-22T00:28:40.570Z,26.83
2018-02-22T00:31:07.063Z,26.45
2018-02-22T00:33:33.507Z,26.58
2018-02-22T00:36:00.661Z,26.58
2018-02-22T00:38:27.108Z,27.08
2018-02-22T00:40:53.559Z,27.20
2018-02-22T00:43:19.998Z,27.10
2018-02-22T00:45:46.394Z,25.73
2018-02-22T00:48:13.572Z,26.60
2018-02-22T00:50:40.757Z,25.30
2018-02-22T00:53:07.989Z,26.17
2018-02-22T00:55:34.910Z,26.80
2018-02-22T00:58:01.995Z,25.75
2018-02-22T01:00:28.402Z,26.98
2018-02-22T01:02:57.564Z,25.42
2018-02-22T01:05:23.983Z,27.08
2018-02-22T01:07:51.132Z,26.80
2018-02-22T01:10:17.573Z,26.50
2018-02-22T01:12:47.095Z,26.62
2018-02-22T01:15:13.525Z,25.17
2018-02-22T01:17:39.935Z,26.42
2018-02-22T01:20:07.110Z,25.58
2018-02-22T01:22:34.298Z,27.02
2018-02-22T01:25:00.715Z,26.90
2018-02-22T01:27:27.135Z,25.88
2018-02-22T01:29:53.547Z,25.52
2018-02-22T01:32:19.986Z,25.12
2018-02-22T01:34:46.578Z,25.05
2018-02-22T01:37:13.752Z,25.80
2018-02-22T01:39:40.311Z,24.98
2018-02-22T01:42:07.476Z,24.42
2018-02-22T01:44:34.756Z,23.60
2018-02-22T01:47:01.926Z,23.53
2018-02-22T01:49:29.064Z,23.30
2018-02-22T01:51:55.476Z,23.43
2018-02-22T01:54:22.016Z,23.60
2018-02-22T01:56:48.425Z,23.92
2018-02-22T01:59:14.924Z,23.50
2018-02-22T02:01:42.142Z,22.25
2018-02-22T02:04:09.278Z,22.95
2018-02-22T02:06:35.684Z,23.00
2018-02-22T02:09:03.293Z,23.33
2018-02-22T02:11:30.448Z,22.45
2018-02-22T02:13:56.856Z,22.80
2018-02-22T02:16:23.270Z,22.20
2018-02-22T02:18:50.432Z,22.20
2018-02-22T02:21:16.827Z,22.70
2018-02-22T02:23:43.219Z,23.50
2018-02-22T02:26:09.620Z,23.52
2018-02-22T02:28:36.823Z,22.20
2018-02-22T02:31:03.791Z,22.05
2018-02-22T02:33:30.201Z,21.50
2018-02-22T02:35:57.385Z,20.83
2018-02-22T02:38:24.558Z,20.48
2018-02-22T02:40:51.702Z,20.42
2018-02-22T02:43:18.117Z,21.23
2018-02-22T02:45:44.581Z,20.27
2018-02-22T02:48:11.108Z,19.00
2018-02-22T02:50:38.270Z,19.30
2018-02-22T02:53:05.424Z,19.52
2018-02-22T02:55:31.847Z,18.62
2018-02-22T02:57:58.269Z,18.40
2018-02-22T03:00:24.699Z,18.60
2018-02-22T03:02:51.171Z,17.50
2018-02-22T03:05:17.633Z,18.08
2018-02-22T03:07:44.194Z,16.98
2018-02-22T03:10:10.657Z,17.65
2018-02-22T03:12:37.115Z,17.10
2018-02-22T03:15:03.566Z,17.20
2018-02-22T03:17:30.015Z,16.52
2018-02-22T03:19:57.219Z,17.92
2018-02-22T03:22:23.664Z,16.45
2018-02-22T03:24:50.119Z,15.80
2018-02-22T03:27:16.657Z,16.15
2018-02-22T03:29:43.831Z,16.50
2018-02-22T03:32:10.286Z,16.00
2018-02-22T03:34:37.487Z,15.30
2018-02-22T03:37:03.904Z,15.43
2018-02-22T03:39:31.082Z,15.15
2018-02-22T03:41:58.252Z,14.73
2018-02-22T03:44:25.441Z,15.30
2018-02-22T03:46:51.905Z,14.80
2018-02-22T03:49:18.445Z,14.30
2018-02-22T03:51:45.645Z,13.80
2018-02-22T03:54:12.072Z,13.83
2018-02-22T03:56:38.813Z,13.62
2018-02-22T03:59:05.724Z,13.40
2018-02-22T04:01:32.185Z,13.90
2018-02-22T04:03:59.318Z,13.67
2018-02-22T04:06:25.850Z,13.50
2018-02-22T04:08:52.395Z,13.60
2018-02-22T04:11:18.903Z,13.55
2018-02-22T04:13:46.081Z,13.45
2018-02-22T04:16:12.513Z,12.90
2018-02-22T04:18:39.068Z,13.57
2018-02-22T04:21:05.566Z,13.35
2018-02-22T04:23:32.000Z,13.25
2018-02-22T04:25:59.186Z,15.23
2018-02-22T04:28:25.733Z,16.55
2018-02-22T04:30:52.382Z,16.00
2018-02-22T04:33:18.830Z,19.35
2018-02-22T04:35:45.444Z,16.42
2018-02-22T04:38:12.044Z,16.47
2018-02-22T04:40:38.502Z,13.88
2018-02-22T04:43:05.740Z,13.80
2018-02-22T04:45:32.390Z,13.90
2018-02-22T04:47:58.824Z,12.90
2018-02-22T04:50:25.382Z,15.40
2018-02-22T04:52:51.831Z,15.30
2018-02-22T04:55:18.299Z,13.20
2018-02-22T04:57:45.462Z,19.10
2018-02-22T05:00:12.734Z,13.75
2018-02-22T05:02:40.113Z,17.75
2018-02-22T05:05:06.745Z,27.80
2018-02-22T05:07:33.908Z,17.62
2018-02-22T05:10:00.388Z,15.30
2018-02-22T05:12:27.096Z,13.90
2018-02-22T05:14:53.753Z,13.43
2018-02-22T05:17:22.105Z,11.93
2018-02-22T05:19:50.133Z,15.57
2018-02-22T05:22:16.728Z,14.63
2018-02-22T05:24:43.168Z,14.30
2018-02-22T05:27:09.674Z,14.93
2018-02-22T05:29:36.820Z,16.83
2018-02-22T05:32:03.347Z,13.45
2018-02-22T05:34:30.500Z,18.75
2018-02-22T05:36:58.055Z,14.10
2018-02-22T05:39:24.540Z,12.45
2018-02-22T05:41:51.256Z,12.37
2018-02-22T05:44:17.844Z,12.00
2018-02-22T05:46:45.362Z,13.30
2018-02-22T05:49:12.590Z,11.77
2018-02-22T05:51:39.047Z,13.10
2018-02-22T05:54:05.531Z,14.25
2018-02-22T05:56:31.983Z,12.30
2018-02-22T05:58:58.423Z,13.18
2018-02-22T06:01:25.577Z,12.23
2018-02-22T06:03:52.766Z,12.25
2018-02-22T06:06:19.889Z,12.20
2018-02-22T06:08:46.298Z,12.55
2018-02-22T06:11:12.767Z,11.70
2018-02-22T06:13:39.203Z,17.00
2018-02-22T06:16:05.939Z,12.05
2018-02-22T06:18:32.365Z,16.65
2018-02-22T06:20:58.851Z,21.50
2018-02-22T06:23:26.010Z,14.80
2018-02-22T06:25:52.409Z,16.58
2018-02-22T06:28:19.186Z,13.10
2018-02-22T06:30:45.662Z,13.23
2018-02-22T06:33:12.172Z,13.48
2018-02-22T06:35:39.189Z,16.85
2018-02-22T06:38:05.711Z,23.12
2018-02-22T06:40:33.276Z,20.95
2018-02-22T06:43:00.745Z,19.83
2018-02-22T06:45:27.183Z,18.23
2018-02-22T06:47:54.355Z,15.38
2018-02-22T06:50:20.754Z,16.35
2018-02-22T06:52:48.027Z,16.30
2018-02-22T06:55:14.469Z,16.73
2018-02-22T06:57:40.940Z,16.90
2018-02-22T07:00:08.134Z,15.93
2018-02-22T07:02:34.723Z,15.43
2018-02-22T07:05:01.129Z,16.30
2018-02-22T07:07:27.542Z,17.15
2018-02-22T07:09:54.320Z,17.85
2018-02-22T07:12:21.578Z,18.20
2018-02-22T07:14:48.075Z,18.58
2018-02-22T07:17:15.268Z,19.40
2018-02-22T07:19:41.722Z,19.20
2018-02-22T07:22:08.181Z,20.60
2018-02-22T07:24:34.603Z,21.62
2018-02-22T07:27:01.759Z,20.48
2018-02-22T07:29:28.457Z,20.92
2018-02-22T07:31:55.057Z,21.42
2018-02-22T07:34:22.227Z,22.27
2018-02-22T07:36:48.598Z,21.95
2018-02-22T07:39:15.323Z,22.40
2018-02-22T07:41:41.749Z,21.57
2018-02-22T07:44:08.357Z,21.92
2018-02-22T07:46:35.360Z,21.50
2018-02-22T07:49:02.068Z,21.80
2018-02-22T07:51:28.521Z,23.20
2018-02-22T07:53:55.036Z,29.12
2018-02-22T07:56:21.459Z,26.95
2018-02-22T07:58:48.682Z,24.17
2018-02-22T08:01:15.157Z,23.67
2018-02-22T08:03:41.600Z,23.65
2018-02-22T08:06:08.075Z,24.57
2018-02-22T08:08:34.599Z,23.90
2018-02-22T08:11:01.747Z,24.55
2018-02-22T08:13:28.287Z,26.67
2018-02-22T08:15:54.752Z,26.55
2018-02-22T08:18:21.195Z,24.80
2018-02-22T08:20:47.994Z,25.05
2018-02-22T08:23:14.477Z,26.98
2018-02-22T08:25:41.376Z,26.90
2018-02-22T08:28:07.787Z,27.77
2018-02-22T08:30:35.254Z,26.27
2018-02-22T08:33:01.891Z,26.50
2018-02-22T08:35:28.375Z,26.27
2018-02-22T08:37:57.761Z,29.10
2018-02-22T08:40:25.296Z,27.35
2018-02-22T08:42:54.252Z,27.48
2018-02-22T08:45:21.463Z,28.87
2018-02-22T08:47:49.037Z,26.08
2018-02-22T08:50:15.504Z,26.70
2018-02-22T08:52:42.021Z,26.62
2018-02-22T08:55:09.328Z,39.13
2018-02-22T08:57:36.571Z,25.70
2018-02-22T09:00:03.106Z,25.70
2018-02-22T09:02:29.538Z,33.03
2018-02-22T09:04:56.810Z,26.25
2018-02-22T09:07:23.242Z,24.52
2018-02-22T09:09:50.396Z,23.80
2018-02-22T09:12:17.620Z,23.80
2018-02-22T09:14:44.131Z,24.40
2018-02-22T09:17:10.590Z,22.40
2018-02-22T09:19:37.916Z,23.42
2018-02-22T09:22:04.389Z,21.83
2018-02-22T09:24:30.804Z,19.83
2018-02-22T09:26:57.274Z,20.80
2018-02-22T09:29:23.691Z,20.35
2018-02-22T09:31:50.320Z,20.20
2018-02-22T09:34:16.819Z,20.25
2018-02-22T09:36:43.264Z,22.83
2018-02-22T09:39:10.433Z,21.55
2018-02-22T09:41:36.870Z,20.92
2018-02-22T09:44:04.249Z,19.80
2018-02-22T09:46:30.747Z,19.55
2018-02-22T09:48:57.906Z,21.43
2018-02-22T09:51:24.378Z,18.70
2018-02-22T09:53:51.938Z,21.45
2018-02-22T09:56:18.351Z,21.95
2018-02-22T09:58:44.924Z,20.12
2018-02-22T10:01:12.211Z,19.58
2018-02-22T10:03:39.536Z,18.20
2018-02-22T10:06:06.714Z,16.02
2018-02-22T10:08:33.502Z,17.80
2018-02-22T10:11:00.609Z,16.75
2018-02-22T10:13:27.822Z,17.25
2018-02-22T10:15:55.024Z,16.67
2018-02-22T10:18:21.506Z,16.70
2018-02-22T10:20:48.669Z,15.50
2018-02-22T10:23:15.867Z,15.60
2018-02-22T10:25:42.630Z,14.82
2018-02-22T10:28:09.804Z,15.03
2018-02-22T10:30:38.154Z,14.30
2018-02-22T10:33:04.607Z,13.80
2018-02-22T10:35:31.110Z,14.38
2018-02-22T10:37:58.283Z,12.93
2018-02-22T10:40:25.468Z,13.18
2018-02-22T10:42:51.904Z,12.40
2018-02-22T10:45:18.341Z,13.05
2018-02-22T10:47:44.805Z,19.45
2018-02-22T10:50:11.232Z,15.20
2018-02-22T10:52:37.681Z,14.10
2018-02-22T10:55:04.058Z,15.30
2018-02-22T10:57:30.507Z,12.70
2018-02-22T10:59:57.207Z,14.05
2018-02-22T11:02:31.334Z,13.73
2018-02-22T11:04:57.753Z,15.05
2018-02-22T11:07:24.228Z,18.85
2018-02-22T11:09:50.829Z,17.67
2018-02-22T11:12:17.266Z,14.45
2018-02-22T11:14:44.466Z,16.35
2018-02-22T11:17:10.892Z,19.40
2018-02-22T11:19:37.532Z,19.80
2018-02-22T11:22:03.970Z,19.65
2018-02-22T11:24:31.176Z,15.00
2018-02-22T11:26:57.775Z,13.68
2018-02-22T11:29:24.323Z,14.07
2018-02-22T11:31:51.281Z,12.50
2018-02-22T11:34:18.655Z,17.55
2018-02-22T11:36:45.072Z,14.02
2018-02-22T11:39:11.634Z,15.35
2018-02-22T11:41:38.828Z,15.32
2018-02-22T11:44:06.986Z,14.00
2018-02-22T11:46:33.622Z,14.77
2018-02-22T11:49:00.055Z,14.10
2018-02-22T11:51:27.202Z,13.85
2018-02-22T11:53:56.861Z,14.60
2018-02-22T11:56:23.381Z,13.23
2018-02-22T11:58:49.840Z,13.48
2018-02-22T12:01:17.026Z,12.95
2018-02-22T12:03:43.466Z,13.32
2018-02-22T12:06:10.434Z,12.52
2018-02-22T12:08:37.729Z,13.00
2018-02-22T12:11:04.197Z,13.15
2018-02-22T12:13:31.531Z,12.65
2018-02-22T12:15:58.321Z,12.50
2018-02-22T12:18:25.496Z,13.30
2018-02-22T12:20:53.044Z,13.05
2018-02-22T12:23:20.446Z,12.77
2018-02-22T12:25:47.168Z,13.20
2018-02-22T12:28:14.079Z,12.32
2018-02-22T12:30:41.479Z,13.52
2018-02-22T12:33:08.159Z,13.85
2018-02-22T12:35:34.579Z,12.50
2018-02-22T12:38:03.717Z,12.97
2018-02-22T12:40:30.986Z,11.80
2018-02-22T12:42:58.139Z,11.20
2018-02-22T12:45:24.736Z,11.50
2018-02-22T12:47:51.255Z,11.80
2018-02-22T12:50:17.772Z,12.37
2018-02-22T12:52:45.111Z,12.43
2018-02-22T12:55:11.580Z,11.43
2018-02-22T12:57:38.021Z,12.15
2018-02-22T13:00:05.249Z,12.20
2018-02-22T13:02:33.521Z,12.87
2018-02-22T13:05:00.054Z,12.00
2018-02-22T13:07:26.605Z,12.02
2018-02-22T13:09:53.167Z,12.30
2018-02-22T13:12:19.637Z,12.35
2018-02-22T13:14:46.142Z,11.57
2018-02-22T13:17:12.609Z,11.48
2018-02-22T13:19:39.125Z,12.02
2018-02-22T13:22:05.552Z,12.30
2018-02-22T13:24:32.109Z,12.10
2018-02-22T13:26:59.357Z,13.48
2018-02-22T13:29:25.883Z,11.95
2018-02-22T13:31:52.350Z,12.48
2018-02-22T13:34:34.654Z,14.82
2018-02-22T13:37:14.225Z,13.90
2018-02-22T13:39:41.631Z,14.00
2018-02-22T13:42:08.189Z,18.10
2018-02-22T13:44:46.960Z,12.90
2018-02-22T13:47:13.479Z,13.30
2018-02-22T13:49:53.054Z,11.90
2018-02-22T13:52:19.510Z,13.15
2018-02-22T13:54:45.920Z,13.20
2018-02-22T13:57:19.316Z,13.13
2018-02-22T13:59:46.079Z,12.35
2018-02-22T14:02:21.719Z,13.00
2018-02-22T14:04:48.951Z,11.77
2018-02-22T14:07:16.155Z,12.20
2018-02-22T14:09:42.573Z,13.60
2018-02-22T14:12:09.912Z,17.98
2018-02-22T14:14:36.866Z,16.80
2018-02-22T14:17:03.365Z,13.57
2018-02-22T14:19:29.826Z,11.30
2018-02-22T14:21:57.137Z,11.38
2018-02-22T14:24:24.005Z,13.23
2018-02-22T14:26:50.689Z,12.50
2018-02-22T14:29:18.052Z,11.27
2018-02-22T14:31:45.482Z,11.73
2018-02-22T14:34:11.954Z,13.10
2018-02-22T14:36:38.417Z,12.15
2018-02-22T14:39:04.952Z,10.95
2018-02-22T14:41:32.151Z,10.70
2018-02-22T14:43:59.034Z,12.27
2018-02-22T14:46:25.510Z,11.10
2018-02-22T14:48:52.253Z,10.48
2018-02-22T14:51:18.693Z,9.30
2018-02-22T14:53:45.177Z,9.80
2018-02-22T14:56:12.132Z,10.20
2018-02-22T14:58:39.824Z,9.77
2018-02-22T15:01:06.295Z,9.75
2018-02-22T15:03:33.695Z,10.05
2018-02-22T15:06:00.140Z,11.45
2018-02-22T15:08:26.624Z,10.13
2018-02-22T15:10:54.715Z,9.57
2018-02-22T15:13:22.004Z,10.00
2018-02-22T15:15:48.564Z,8.75
2018-02-22T15:18:15.105Z,8.80
2018-02-22T15:20:41.519Z,9.20
2018-02-22T15:23:07.994Z,10.57
2018-02-22T15:25:35.577Z,9.10
2018-02-22T15:28:03.079Z,10.07
2018-02-22T15:30:29.712Z,9.38
2018-02-22T15:32:56.195Z,9.60
2018-02-22T15:35:23.572Z,9.20
2018-02-22T15:37:50.030Z,9.40
2018-02-22T15:40:17.585Z,9.73
2018-02-22T15:42:44.012Z,9.90
2018-02-22T15:45:10.451Z,9.33
2018-02-22T15:47:36.979Z,9.60
2018-02-22T15:50:04.166Z,13.60
2018-02-22T15:52:30.625Z,10.77
2018-02-22T15:54:57.085Z,9.35
2018-02-22T15:57:23.923Z,9.30
2018-02-22T15:59:51.100Z,18.08
2018-02-22T16:02:18.272Z,15.40
2018-02-22T16:04:44.883Z,10.23
2018-02-22T16:07:11.390Z,11.43
2018-02-22T16:09:37.896Z,11.10
2018-02-22T16:12:04.357Z,12.65
2018-02-22T16:14:30.819Z,11.98
2018-02-22T16:16:57.310Z,12.20
2018-02-22T16:19:24.507Z,13.40
2018-02-22T16:21:51.004Z,12.97
2018-02-22T16:24:19.036Z,10.70
2018-02-22T16:26:46.296Z,11.87
2018-02-22T16:29:12.792Z,10.80
2018-02-22T16:31:39.676Z,12.57
2018-02-22T16:34:06.214Z,11.37
2018-02-22T16:36:32.678Z,13.02
2018-02-22T16:38:59.308Z,10.82
2018-02-22T16:41:25.904Z,10.82
2018-02-22T16:43:53.144Z,9.82
2018-02-22T16:46:20.399Z,9.55
2018-02-22T16:48:47.595Z,10.50
2018-02-22T16:51:14.129Z,9.00
2018-02-22T16:53:41.088Z,10.18
2018-02-22T16:56:07.675Z,9.95
2018-02-22T16:58:34.110Z,9.93
2018-02-22T17:01:01.407Z,8.90
2018-02-22T17:03:28.222Z,9.07
2018-02-22T17:05:54.832Z,9.20
2018-02-22T17:08:21.296Z,9.60
2018-02-22T17:10:47.752Z,12.20
2018-02-22T17:13:14.201Z,10.80
2018-02-22T17:15:41.571Z,8.82
2018-02-22T17:18:08.139Z,9.13
2018-02-22T17:20:34.610Z,11.10
2018-02-22T17:23:01.876Z,10.32
2018-02-22T17:25:28.307Z,9.70
2018-02-22T17:28:01.599Z,10.73
2018-02-22T17:30:34.115Z,11.12
2018-02-22T17:33:00.557Z,17.15
2018-02-22T17:35:28.669Z,10.50
2018-02-22T17:37:55.456Z,9.90
2018-02-22T17:40:28.130Z,10.75
2018-02-22T17:42:55.338Z,10.52
2018-02-22T17:45:22.078Z,11.30
2018-02-22T17:47:48.774Z,12.73
2018-02-22T17:50:15.292Z,11.10
2018-02-22T17:52:41.694Z,11.45
2018-02-22T17:55:08.147Z,10.55
2018-02-22T17:57:34.905Z,12.90
2018-02-22T18:00:01.513Z,16.55
2018-02-22T18:02:28.896Z,14.60
2018-02-22T18:04:56.044Z,17.05
2018-02-22T18:07:22.538Z,15.60
2018-02-22T18:09:49.083Z,23.38
2018-02-22T18:12:15.585Z,16.40
2018-02-22T18:14:42.196Z,13.15
2018-02-22T18:17:08.679Z,13.65
2018-02-22T18:19:35.350Z,11.52
2018-02-22T18:22:05.913Z,10.63
2018-02-22T18:24:37.847Z,13.27
2018-02-22T18:27:09.705Z,17.70
2018-02-22T18:29:38.600Z,17.35
2018-02-22T18:32:05.497Z,13.00
2018-02-22T18:34:33.215Z,11.80
2018-02-22T18:36:59.651Z,12.15
2018-02-22T18:39:30.530Z,11.43
2018-02-22T18:42:04.863Z,17.67
2018-02-22T18:44:53.574Z,14.98
2018-02-22T18:47:22.277Z,13.07
2018-02-22T18:49:50.849Z,19.98
2018-02-22T18:52:17.620Z,30.90
2018-02-22T18:54:45.234Z,16.83
2018-02-22T18:57:11.659Z,23.77
2018-02-22T18:59:38.650Z,18.25
2018-02-22T19:02:05.905Z,45.22
2018-02-22T19:04:33.631Z,25.37
2018-02-22T19:07:00.277Z,37.20
2018-02-22T19:09:30.877Z,14.80
2018-02-22T19:11:58.331Z,19.67
2018-02-22T19:14:29.392Z,14.95
2018-02-22T19:16:56.632Z,17.73
2018-02-22T19:19:23.520Z,25.40
2018-02-22T19:21:50.132Z,16.10
2018-02-22T19:24:17.078Z,15.02
2018-02-22T19:26:44.501Z,13.00
2018-02-22T19:29:11.203Z,13.52
2018-02-22T19:31:40.051Z,14.43
2018-02-22T19:34:07.254Z,14.80
2018-02-22T19:36:34.802Z,14.13
2018-02-22T19:39:01.407Z,14.52
2018-02-22T19:41:27.844Z,14.80
2018-02-22T19:43:54.448Z,14.55
2018-02-22T19:46:20.916Z,28.60
2018-02-22T19:48:47.449Z,20.35
2018-02-22T19:51:15.094Z,18.90
2018-02-22T19:53:44.445Z,25.83
2018-02-22T19:56:11.586Z,28.85
2018-02-22T19:58:38.033Z,29.87
2018-02-22T20:01:05.052Z,27.30
2018-02-22T20:03:32.181Z,24.42
2018-02-22T20:05:58.943Z,19.33
2018-02-22T20:08:26.653Z,20.42
2018-02-22T20:10:53.374Z,16.43
2018-02-22T20:13:20.627Z,15.40
2018-02-22T20:15:47.109Z,17.15
2018-02-22T20:18:13.888Z,15.48
2018-02-22T20:20:40.648Z,15.35
2018-02-22T20:23:08.417Z,17.45
2018-02-22T20:25:34.895Z,16.48
2018-02-22T20:28:01.480Z,14.43
2018-02-22T20:30:28.389Z,17.02
2018-02-22T20:32:55.173Z,14.10
2018-02-22T20:35:22.774Z,16.67
2018-02-22T20:37:49.832Z,15.43
2018-02-22T20:40:16.352Z,16.75
2018-02-22T20:42:43.154Z,18.27
2018-02-22T20:45:10.183Z,15.40
2018-02-22T20:47:38.264Z,16.45
2018-02-22T20:50:05.249Z,16.27
2018-02-22T20:52:33.625Z,18.75
2018-02-22T20:55:22.645Z,17.15
2018-02-22T20:57:49.812Z,17.05
2018-02-22T21:00:16.546Z,19.45
2018-02-22T21:02:43.928Z,18.15
2018-02-22T21:05:10.547Z,18.60
2018-02-22T21:07:38.194Z,16.55
2018-02-22T21:10:04.858Z,16.05
2018-02-22T21:12:31.810Z,17.42
2018-02-22T21:14:59.197Z,16.07
2018-02-22T21:17:25.655Z,16.58
2018-02-22T21:19:53.032Z,16.35
2018-02-22T21:22:21.204Z,16.58
2018-02-22T21:24:47.695Z,16.95
2018-02-22T21:27:14.752Z,17.05
2018-02-22T21:29:42.126Z,16.57
2018-02-22T21:32:11.651Z,17.00
2018-02-22T21:34:38.437Z,17.67
2018-02-22T21:37:05.487Z,17.87
2018-02-22T21:39:33.783Z,18.00
2018-02-22T21:42:02.388Z,18.40
2018-02-22T21:44:29.150Z,19.52
2018-02-22T21:46:55.927Z,21.48
2018-02-22T21:49:22.880Z,19.40
2018-02-22T21:51:49.496Z,19.10
2018-02-22T21:54:16.076Z,19.73
2018-02-22T21:56:42.891Z,20.58
2018-02-22T21:59:09.339Z,19.65
2018-02-22T22:01:35.785Z,20.27
2018-02-22T22:04:02.861Z,20.70
2018-02-22T22:06:29.289Z,20.60
2018-02-22T22:08:56.477Z,20.55
2018-02-22T22:11:23.134Z,20.88
2018-02-22T22:13:49.649Z,20.95
2018-02-22T22:16:16.120Z,21.03
2018-02-22T22:18:42.708Z,21.42
2018-02-22T22:21:10.234Z,21.60
2018-02-22T22:23:36.805Z,21.17
2018-02-22T22:26:03.298Z,21.67
2018-02-22T22:28:29.849Z,20.87
2018-02-22T22:30:57.032Z,21.15
2018-02-22T22:33:24.200Z,21.77
2018-02-22T22:35:51.356Z,21.50
2018-02-22T22:38:17.806Z,21.90
2018-02-22T22:40:44.241Z,21.37
2018-02-22T22:43:10.694Z,22.00
2018-02-22T22:45:37.205Z,21.45
2018-02-22T22:48:04.369Z,22.70
2018-02-22T22:50:33.923Z,22.30
2018-02-22T22:53:00.362Z,22.45
2018-02-22T22:55:27.023Z,21.90
2018-02-22T22:57:53.473Z,21.40
2018-02-22T23:00:21.499Z,21.95
2018-02-22T23:02:47.949Z,22.30
2018-02-22T23:05:14.453Z,21.95
2018-02-22T23:07:40.909Z,21.27
2018-02-22T23:10:08.882Z,21.83
2018-02-22T23:12:35.386Z,21.48
2018-02-22T23:15:01.849Z,21.30
2018-02-22T23:17:28.294Z,21.65
2018-02-22T23:19:55.467Z,21.77
2018-02-22T23:22:22.785Z,21.45
2018-02-22T23:24:49.204Z,22.02
2018-02-22T23:27:15.724Z,22.13
2018-02-22T23:29:42.220Z,22.20
2018-02-22T23:32:08.772Z,22.53
2018-02-22T23:34:35.272Z,22.40
2018-02-22T23:37:01.838Z,21.62
2018-02-22T23:39:28.347Z,20.92
2018-02-22T23:44:55.210Z,19.90
2018-02-22T23:47:22.488Z,17.52
2018-02-22T23:49:49.721Z,17.52
2018-02-22T23:52:16.319Z,16.77
2018-02-22T23:54:43.599Z,16.87
2018-02-22T23:57:10.560Z,17.52
2018-02-22T23:59:37.836Z,17.58
